createdAt,value
2022-09-20T00:01:32.410Z,7.54
2022-09-20T00:04:06.900Z,7.54
2022-09-20T00:06:36.819Z,7.53
2022-09-20T00:09:06.509Z,7.53
2022-09-20T00:11:37.970Z,7.52
2022-09-20T00:14:09.330Z,7.48
2022-09-20T00:16:42.509Z,7.54
2022-09-20T00:19:19.288Z,7.57
2022-09-20T00:21:49.071Z,7.60
2022-09-20T00:24:19.108Z,7.56
2022-09-20T00:26:49.848Z,7.54
2022-09-20T00:29:19.294Z,7.50
2022-09-20T00:31:48.670Z,7.46
2022-09-20T00:34:35.428Z,7.46
2022-09-20T00:37:05.188Z,7.45
2022-09-20T00:39:34.580Z,7.46
2022-09-20T00:42:05.915Z,7.49
2022-09-20T00:44:58.311Z,7.48
2022-09-20T00:47:39.765Z,7.55
2022-09-20T00:50:34.798Z,7.52
2022-09-20T00:53:11.229Z,7.62
2022-09-20T00:55:47.284Z,7.68
2022-09-20T00:58:20.319Z,7.64
2022-09-20T01:00:52.706Z,7.63
2022-09-20T01:03:23.818Z,7.64
2022-09-20T01:05:54.550Z,7.58
2022-09-20T01:08:25.375Z,7.57
2022-09-20T01:10:55.152Z,7.53
2022-09-20T01:13:26.981Z,7.53
2022-09-20T01:16:00.393Z,7.49
2022-09-20T01:18:31.626Z,7.51
2022-09-20T01:21:02.800Z,7.48
2022-09-20T01:23:57.629Z,7.45
2022-09-20T01:26:58.017Z,7.47
2022-09-20T01:30:00.177Z,7.45
2022-09-20T01:32:59.476Z,7.44
2022-09-20T01:35:30.091Z,7.44
2022-09-20T01:38:24.942Z,7.45
2022-09-20T01:41:06.000Z,7.41
2022-09-20T01:43:42.489Z,7.41
2022-09-20T01:46:31.054Z,7.37
2022-09-20T01:49:22.024Z,7.36
2022-09-20T01:52:41.401Z,7.36
2022-09-20T01:56:19.605Z,7.35
2022-09-20T01:59:24.867Z,7.37
2022-09-20T02:02:33.997Z,7.36
2022-09-20T02:05:35.701Z,7.27
2022-09-20T02:08:41.415Z,7.19
2022-09-20T02:11:17.557Z,7.19
2022-09-20T02:14:30.109Z,7.18
2022-09-20T02:17:14.493Z,7.24
2022-09-20T02:20:03.018Z,7.21
2022-09-20T02:23:07.844Z,7.25
2022-09-20T02:26:17.010Z,7.18
2022-09-20T02:28:57.778Z,7.14
2022-09-20T02:32:10.505Z,7.10
2022-09-20T02:35:21.353Z,7.06
2022-09-20T02:38:18.496Z,7.11
2022-09-20T02:41:18.184Z,7.14
2022-09-20T02:44:01.043Z,7.09
2022-09-20T02:46:42.065Z,7.06
2022-09-20T02:49:27.846Z,7.00
2022-09-20T02:52:07.248Z,6.98
2022-09-20T02:54:51.676Z,7.01
2022-09-20T02:57:33.612Z,7.03
2022-09-20T03:00:07.734Z,7.02
2022-09-20T03:02:52.030Z,7.00
2022-09-20T03:05:30.816Z,6.95
2022-09-20T03:08:29.076Z,6.91
2022-09-20T03:11:13.496Z,6.92
2022-09-20T03:14:09.809Z,6.95
2022-09-20T03:16:59.129Z,6.93
2022-09-20T03:19:47.901Z,6.95
2022-09-20T03:22:35.584Z,6.89
2022-09-20T03:25:58.546Z,6.86
2022-09-20T03:28:54.848Z,6.84
2022-09-20T03:31:48.534Z,6.83
2022-09-20T03:34:36.556Z,6.80
2022-09-20T03:37:34.162Z,6.77
2022-09-20T03:41:12.474Z,6.70
2022-09-20T03:44:14.921Z,6.64
2022-09-20T03:46:48.829Z,6.60
2022-09-20T03:49:57.469Z,6.58
2022-09-20T03:53:02.512Z,6.57
2022-09-20T03:56:13.077Z,6.62
2022-09-20T03:59:15.496Z,6.62
2022-09-20T04:02:20.925Z,6.62
2022-09-20T04:04:56.757Z,6.65
2022-09-20T04:07:41.399Z,6.66
2022-09-20T04:10:44.421Z,6.68
2022-09-20T04:13:37.616Z,6.61
2022-09-20T04:16:24.464Z,6.65
2022-09-20T04:18:59.753Z,6.61
2022-09-20T04:21:38.893Z,6.61
2022-09-20T04:24:21.992Z,6.61
2022-09-20T04:26:58.309Z,6.62
2022-09-20T04:29:40.873Z,6.64
2022-09-20T04:32:21.090Z,6.69
2022-09-20T04:35:20.610Z,6.65
2022-09-20T04:37:52.022Z,6.63
2022-09-20T04:40:48.793Z,6.61
2022-09-20T04:44:02.160Z,6.61
2022-09-20T04:47:06.845Z,6.59
2022-09-20T04:50:56.365Z,6.59
2022-09-20T04:53:57.160Z,6.56
2022-09-20T04:56:48.713Z,6.59
2022-09-20T04:59:32.375Z,6.58
2022-09-20T05:03:19.316Z,6.58
2022-09-20T05:06:19.442Z,6.56
2022-09-20T05:09:30.042Z,6.55
2022-09-20T05:12:58.437Z,6.55
2022-09-20T05:15:43.372Z,6.58
2022-09-20T05:19:09.005Z,6.58
2022-09-20T05:22:05.273Z,6.60
2022-09-20T05:25:23.296Z,6.60
2022-09-20T05:28:02.852Z,6.61
2022-09-20T05:30:42.056Z,6.67
2022-09-20T05:33:23.669Z,6.75
2022-09-20T05:36:08.223Z,6.82
2022-09-20T05:38:49.832Z,6.81
2022-09-20T05:41:33.048Z,6.84
2022-09-20T05:44:15.556Z,6.90
2022-09-20T05:47:01.276Z,6.90
2022-09-20T05:49:53.293Z,6.92
2022-09-20T05:52:49.396Z,6.97
2022-09-20T05:55:52.759Z,7.00
2022-09-20T05:58:46.197Z,7.05
2022-09-20T06:01:25.307Z,7.08
2022-09-20T06:04:08.118Z,7.09
2022-09-20T06:06:56.190Z,7.14
2022-09-20T06:10:01.285Z,7.19
2022-09-20T06:12:52.844Z,7.25
2022-09-20T06:15:35.562Z,7.30
2022-09-20T06:18:26.876Z,7.35
2022-09-20T06:21:15.013Z,7.38
2022-09-20T06:23:45.806Z,7.42
2022-09-20T06:26:20.969Z,7.47
2022-09-20T06:28:58.443Z,7.50
2022-09-20T06:31:28.659Z,7.54
2022-09-20T06:34:04.805Z,7.63
2022-09-20T06:36:54.752Z,7.65
2022-09-20T06:39:56.316Z,7.72
2022-09-20T06:42:27.522Z,7.85
2022-09-20T06:44:57.256Z,7.87
2022-09-20T06:47:27.176Z,7.93
2022-09-20T06:49:56.560Z,7.95
2022-09-20T06:52:26.054Z,8.07
2022-09-20T06:54:57.773Z,8.06
2022-09-20T06:57:36.904Z,8.09
2022-09-20T07:00:11.520Z,8.13
2022-09-20T07:02:40.917Z,8.14
2022-09-20T07:05:16.536Z,8.16
2022-09-20T07:07:47.456Z,8.18
2022-09-20T07:10:18.216Z,8.18
2022-09-20T07:12:47.693Z,8.22
2022-09-20T07:15:17.294Z,8.18
2022-09-20T07:17:48.900Z,8.17
2022-09-20T07:20:21.562Z,8.15
2022-09-20T07:22:51.301Z,8.14
2022-09-20T07:25:22.616Z,8.13
2022-09-20T07:27:52.466Z,8.07
2022-09-20T07:30:22.593Z,8.05
2022-09-20T07:32:52.040Z,7.96
2022-09-20T07:35:21.432Z,7.99
2022-09-20T07:37:57.535Z,7.93
2022-09-20T07:40:28.433Z,7.89
2022-09-20T07:42:58.590Z,7.91
2022-09-20T07:45:28.054Z,7.93
2022-09-20T07:47:59.471Z,7.95
2022-09-20T07:50:28.866Z,7.93
2022-09-20T07:52:58.681Z,7.94
2022-09-20T07:55:29.433Z,7.97
2022-09-20T07:57:58.890Z,8.02
2022-09-20T08:00:28.299Z,8.10
2022-09-20T08:03:01.098Z,8.19
2022-09-20T08:05:31.780Z,8.32
2022-09-20T08:08:01.153Z,8.36
2022-09-20T08:10:32.742Z,8.43
2022-09-20T08:15:51.484Z,8.62
2022-09-20T08:18:21.284Z,8.73
2022-09-20T08:20:50.893Z,8.87
2022-09-20T08:23:23.827Z,9.12
2022-09-20T08:25:57.672Z,9.33
2022-09-20T08:28:27.085Z,9.53
2022-09-20T08:31:03.935Z,9.62
2022-09-20T08:33:36.418Z,9.66
2022-09-20T08:36:06.735Z,9.66
2022-09-20T08:41:32.156Z,9.72
2022-09-20T08:44:08.744Z,9.68
2022-09-20T08:46:44.948Z,9.77
2022-09-20T08:49:26.823Z,9.80
2022-09-20T08:51:58.125Z,9.89
2022-09-20T08:54:32.293Z,9.91
2022-09-20T08:57:07.780Z,10.08
2022-09-20T08:59:37.118Z,10.14
2022-09-20T09:02:17.984Z,10.14
2022-09-20T09:04:49.943Z,10.22
2022-09-20T09:07:22.065Z,10.33
2022-09-20T09:09:56.080Z,10.50
2022-09-20T09:12:32.121Z,10.56
2022-09-20T09:15:22.986Z,10.60
2022-09-20T09:17:52.331Z,10.57
2022-09-20T09:20:24.768Z,10.48
2022-09-20T09:23:04.130Z,10.41
2022-09-20T09:25:37.290Z,10.37
2022-09-20T09:28:15.699Z,10.39
2022-09-20T09:30:47.713Z,10.49
2022-09-20T09:33:28.126Z,10.54
2022-09-20T09:36:03.383Z,10.59
2022-09-20T09:38:37.019Z,10.66
2022-09-20T09:41:25.263Z,10.73
2022-09-20T09:44:04.936Z,10.60
2022-09-20T09:46:36.553Z,10.41
2022-09-20T09:49:12.870Z,10.38
2022-09-20T09:51:45.033Z,10.38
2022-09-20T09:54:19.850Z,10.40
2022-09-20T09:57:12.104Z,10.41
2022-09-20T10:00:10.771Z,10.55
2022-09-20T10:03:23.006Z,10.73
2022-09-20T10:06:14.539Z,10.92
2022-09-20T10:09:03.238Z,10.89
2022-09-20T10:11:58.801Z,10.91
2022-09-20T10:14:53.637Z,10.71
2022-09-20T10:17:49.840Z,10.65
2022-09-20T10:20:53.166Z,10.51
2022-09-20T10:24:07.746Z,10.48
2022-09-20T10:27:11.147Z,10.56
2022-09-20T10:30:01.604Z,10.68
2022-09-20T10:32:59.796Z,10.63
2022-09-20T10:35:59.067Z,10.74
2022-09-20T10:38:37.072Z,10.79
2022-09-20T10:41:45.133Z,11.02
2022-09-20T10:44:41.421Z,11.13
2022-09-20T10:47:20.208Z,11.18
2022-09-20T10:50:03.059Z,11.38
2022-09-20T10:52:53.201Z,11.53
2022-09-20T10:55:39.250Z,11.62
2022-09-20T10:58:54.211Z,11.69
2022-09-20T11:01:34.519Z,11.78
2022-09-20T11:04:44.261Z,11.61
2022-09-20T11:07:20.353Z,11.60
2022-09-20T11:10:00.710Z,11.64
2022-09-20T11:12:38.212Z,11.69
2022-09-20T11:15:21.830Z,11.79
2022-09-20T11:18:03.758Z,11.89
2022-09-20T11:20:44.113Z,11.94
2022-09-20T11:23:20.996Z,11.99
2022-09-20T11:25:55.508Z,11.97
2022-09-20T11:28:34.406Z,12.02
2022-09-20T11:31:12.890Z,12.06
2022-09-20T11:33:48.141Z,12.13
2022-09-20T11:36:26.764Z,12.17
2022-09-20T11:39:03.487Z,12.26
2022-09-20T11:41:33.731Z,12.43
2022-09-20T11:44:08.632Z,12.54
2022-09-20T11:46:47.141Z,12.48
2022-09-20T11:49:23.688Z,12.47
2022-09-20T11:52:46.465Z,12.36
2022-09-20T11:55:42.534Z,12.28
2022-09-20T11:58:16.710Z,12.01
2022-09-20T12:00:52.260Z,11.95
2022-09-20T12:03:35.581Z,11.98
2022-09-20T12:06:07.601Z,11.97
2022-09-20T12:08:41.861Z,12.01
2022-09-20T12:11:16.173Z,12.15
2022-09-20T12:13:58.735Z,12.18
2022-09-20T12:16:42.353Z,12.19
2022-09-20T12:19:14.409Z,12.24
2022-09-20T12:22:31.814Z,12.35
2022-09-20T12:25:39.529Z,12.48
2022-09-20T12:28:17.284Z,12.45
2022-09-20T12:30:46.687Z,12.53
2022-09-20T12:33:22.107Z,12.67
2022-09-20T12:36:17.387Z,12.95
2022-09-20T12:39:05.373Z,13.39
2022-09-20T12:41:52.836Z,13.52
2022-09-20T12:44:37.664Z,13.43
2022-09-20T12:47:19.001Z,13.43
2022-09-20T12:50:11.152Z,13.54
2022-09-20T12:52:58.126Z,13.70
2022-09-20T12:55:56.304Z,13.91
2022-09-20T12:58:41.546Z,13.93
2022-09-20T13:01:38.144Z,13.97
2022-09-20T13:05:02.915Z,14.04
2022-09-20T13:07:59.216Z,14.16
2022-09-20T13:10:35.865Z,14.15
2022-09-20T13:13:27.947Z,14.09
2022-09-20T13:15:59.681Z,13.95
2022-09-20T13:18:29.829Z,14.04
2022-09-20T13:21:06.424Z,14.23
2022-09-20T13:23:46.332Z,14.34
2022-09-20T13:26:16.903Z,14.55
2022-09-20T13:28:51.512Z,14.48
2022-09-20T13:31:40.132Z,14.49
2022-09-20T13:34:21.595Z,14.55
2022-09-20T13:36:56.407Z,14.66
2022-09-20T13:39:35.041Z,14.76
2022-09-20T13:42:11.648Z,14.94
2022-09-20T13:44:40.915Z,15.08
2022-09-20T13:47:28.959Z,15.06
2022-09-20T13:50:03.196Z,14.87
2022-09-20T13:52:33.625Z,14.82
2022-09-20T13:55:30.732Z,14.71
2022-09-20T13:58:03.900Z,14.81
2022-09-20T14:00:34.785Z,15.23
2022-09-20T14:03:05.767Z,16.03
2022-09-20T14:05:35.196Z,16.72
2022-09-20T14:08:04.339Z,17.36
2022-09-20T14:10:36.996Z,17.60
2022-09-20T14:13:08.297Z,17.40
2022-09-20T14:15:40.250Z,16.99
2022-09-20T14:18:16.691Z,16.53
2022-09-20T14:20:46.470Z,16.11
2022-09-20T14:23:22.804Z,15.72
2022-09-20T14:26:10.214Z,15.41
2022-09-20T14:28:39.298Z,15.67
2022-09-20T14:31:14.509Z,15.47
2022-09-20T14:33:49.803Z,15.28
2022-09-20T14:36:24.677Z,15.24
2022-09-20T14:38:56.666Z,15.08
2022-09-20T14:41:29.669Z,14.87
2022-09-20T14:44:00.561Z,14.78
2022-09-20T14:46:33.793Z,14.72
2022-09-20T14:49:30.052Z,14.55
2022-09-20T14:52:33.685Z,14.29
2022-09-20T14:55:11.384Z,14.14
2022-09-20T14:57:40.915Z,13.96
2022-09-20T15:00:15.147Z,13.76
2022-09-20T15:02:45.727Z,13.73
2022-09-20T15:05:23.866Z,13.66
2022-09-20T15:07:54.423Z,13.57
2022-09-20T15:10:24.032Z,13.42
2022-09-20T15:12:53.141Z,13.45
2022-09-20T15:15:22.212Z,13.72
2022-09-20T15:17:51.436Z,14.08
2022-09-20T15:20:24.598Z,14.31
2022-09-20T15:22:53.929Z,14.22
2022-09-20T15:25:23.515Z,14.05
2022-09-20T15:27:52.648Z,13.95
2022-09-20T15:30:22.364Z,13.75
2022-09-20T15:32:51.691Z,13.62
2022-09-20T15:35:22.168Z,13.49
2022-09-20T15:37:51.312Z,13.37
2022-09-20T15:40:20.443Z,13.28
2022-09-20T15:42:49.588Z,13.24
2022-09-20T15:45:19.611Z,13.18
2022-09-20T15:47:48.718Z,13.08
2022-09-20T15:50:18.043Z,13.04
2022-09-20T15:52:50.265Z,12.97
2022-09-20T15:55:20.243Z,12.84
2022-09-20T15:57:49.834Z,12.78
2022-09-20T16:00:19.764Z,12.67
2022-09-20T16:02:50.697Z,12.63
2022-09-20T16:05:19.824Z,12.57
2022-09-20T16:07:50.266Z,12.53
2022-09-20T16:10:19.371Z,12.49
2022-09-20T16:12:48.471Z,12.47
2022-09-20T16:15:17.616Z,12.43
2022-09-20T16:18:04.445Z,12.40
2022-09-20T16:20:33.576Z,12.35
2022-09-20T16:23:04.378Z,12.29
2022-09-20T16:25:33.538Z,12.24
2022-09-20T16:28:03.263Z,12.13
2022-09-20T16:30:32.355Z,12.05
2022-09-20T16:33:05.381Z,11.95
2022-09-20T16:35:34.595Z,11.84
2022-09-20T16:38:05.093Z,11.80
2022-09-20T16:40:35.047Z,11.75
2022-09-20T16:43:07.541Z,11.68
2022-09-20T16:45:37.172Z,11.57
2022-09-20T16:48:08.618Z,11.51
2022-09-20T16:50:38.093Z,11.41
2022-09-20T16:53:08.546Z,11.36
2022-09-20T16:55:38.564Z,11.29
2022-09-20T16:58:09.049Z,11.19
2022-09-20T17:00:38.222Z,11.14
2022-09-20T17:03:08.207Z,11.05
2022-09-20T17:05:37.304Z,10.97
2022-09-20T17:08:08.555Z,10.90
2022-09-20T17:10:37.735Z,10.77
2022-09-20T17:13:07.384Z,10.71
2022-09-20T17:15:37.728Z,10.61
2022-09-20T17:18:08.794Z,10.54
2022-09-20T17:20:40.068Z,10.44
2022-09-20T17:23:10.666Z,10.36
2022-09-20T17:25:46.172Z,10.31
2022-09-20T17:28:15.460Z,10.27
2022-09-20T17:30:44.768Z,10.21
2022-09-20T17:33:14.748Z,10.20
2022-09-20T17:35:52.088Z,10.16
2022-09-20T17:38:22.771Z,10.14
2022-09-20T17:41:01.503Z,10.11
2022-09-20T17:43:31.674Z,10.09
2022-09-20T17:46:10.093Z,10.07
2022-09-20T17:48:39.924Z,10.05
2022-09-20T17:51:12.666Z,10.02
2022-09-20T17:53:43.399Z,9.98
2022-09-20T17:56:15.308Z,9.96
2022-09-20T17:58:44.847Z,9.93
2022-09-20T18:01:16.331Z,9.90
2022-09-20T18:03:47.757Z,9.82
2022-09-20T18:06:19.649Z,9.75
2022-09-20T18:08:51.729Z,9.70
2022-09-20T18:11:24.898Z,9.65
2022-09-20T18:13:54.025Z,9.61
2022-09-20T18:16:24.259Z,9.58
2022-09-20T18:18:53.616Z,9.58
2022-09-20T18:21:25.224Z,9.60
2022-09-20T18:23:57.124Z,9.63
2022-09-20T18:26:29.977Z,9.64
2022-09-20T18:29:01.952Z,9.61
2022-09-20T18:31:33.382Z,9.60
2022-09-20T18:34:04.079Z,9.56
2022-09-20T18:36:36.050Z,9.53
2022-09-20T18:39:07.416Z,9.49
2022-09-20T18:41:39.749Z,9.44
2022-09-20T18:44:08.940Z,9.42
2022-09-20T18:46:39.043Z,9.41
2022-09-20T18:49:12.732Z,9.37
2022-09-20T18:51:42.466Z,9.34
2022-09-20T18:54:13.467Z,9.27
2022-09-20T18:56:44.620Z,9.23
2022-09-20T18:59:17.169Z,9.16
2022-09-20T19:02:10.516Z,9.12
2022-09-20T19:05:29.362Z,9.07
2022-09-20T19:08:17.897Z,9.04
2022-09-20T19:10:53.113Z,8.98
2022-09-20T19:13:36.262Z,8.97
2022-09-20T19:16:21.047Z,8.93
2022-09-20T19:19:41.116Z,8.88
2022-09-20T19:22:27.244Z,8.89
2022-09-20T19:25:19.117Z,8.89
2022-09-20T19:27:52.278Z,8.90
2022-09-20T19:30:22.971Z,8.92
2022-09-20T19:32:53.436Z,8.91
2022-09-20T19:35:33.476Z,8.90
2022-09-20T19:38:15.394Z,8.89
2022-09-20T19:40:54.519Z,8.89
2022-09-20T19:43:54.300Z,8.86
2022-09-20T19:46:46.884Z,8.81
2022-09-20T19:49:23.148Z,8.76
2022-09-20T19:51:57.013Z,8.73
2022-09-20T19:54:27.688Z,8.70
2022-09-20T19:56:59.962Z,8.65
2022-09-20T19:59:32.740Z,8.57
2022-09-20T20:02:03.495Z,8.52
2022-09-20T20:04:34.242Z,8.49
2022-09-20T20:07:15.352Z,8.45
2022-09-20T20:09:52.183Z,8.42
2022-09-20T20:14:25.818Z,8.34
2022-09-20T20:17:14.622Z,8.24
2022-09-20T20:20:19.826Z,8.20
2022-09-20T20:23:49.337Z,8.12
2022-09-20T20:26:23.544Z,8.07
2022-09-20T20:28:54.696Z,8.00
2022-09-20T20:31:26.114Z,7.91
2022-09-20T20:33:57.497Z,7.87
2022-09-20T20:36:26.932Z,7.82
2022-09-20T20:38:56.674Z,7.76
2022-09-20T20:41:27.232Z,7.72
2022-09-20T20:43:57.109Z,7.68
2022-09-20T20:46:33.965Z,7.65
2022-09-20T20:49:05.580Z,7.60
2022-09-20T20:51:35.012Z,7.59
2022-09-20T20:54:05.629Z,7.56
2022-09-20T20:56:35.288Z,7.54
2022-09-20T20:59:06.105Z,7.50
2022-09-20T21:01:39.526Z,7.48
2022-09-20T21:04:11.283Z,7.46
2022-09-20T21:06:42.290Z,7.47
2022-09-20T21:09:13.403Z,7.48
2022-09-20T21:11:44.093Z,7.46
2022-09-20T21:14:13.952Z,7.48
2022-09-20T21:16:45.512Z,7.49
2022-09-20T21:19:16.826Z,7.53
2022-09-20T21:21:48.378Z,7.50
2022-09-20T21:24:18.193Z,7.50
2022-09-20T21:26:48.458Z,7.46
2022-09-20T21:29:20.288Z,7.46
2022-09-20T21:31:49.724Z,7.45
2022-09-20T21:34:20.478Z,7.43
2022-09-20T21:36:51.008Z,7.41
2022-09-20T21:39:20.404Z,7.39
2022-09-20T21:41:49.814Z,7.37
2022-09-20T21:44:20.464Z,7.39
2022-09-20T21:46:50.063Z,7.41
2022-09-20T21:49:20.885Z,7.37
2022-09-20T21:51:52.018Z,7.36
2022-09-20T21:54:21.445Z,7.33
2022-09-20T21:56:52.873Z,7.28
2022-09-20T21:59:22.842Z,7.28
2022-09-20T22:01:52.679Z,7.19
2022-09-20T22:04:23.498Z,7.13
2022-09-20T22:06:52.905Z,7.07
2022-09-20T22:09:24.006Z,6.98
2022-09-20T22:11:53.417Z,6.91
2022-09-20T22:14:23.161Z,6.84
2022-09-20T22:16:52.632Z,6.78
2022-09-20T22:19:24.457Z,6.72
2022-09-20T22:21:53.836Z,6.65
2022-09-20T22:24:23.787Z,6.58
2022-09-20T22:26:53.642Z,6.51
2022-09-20T22:29:23.028Z,6.45
2022-09-20T22:31:52.428Z,6.39
2022-09-20T22:34:24.781Z,6.33
2022-09-20T22:36:54.244Z,6.24
2022-09-20T22:39:23.601Z,6.17
2022-09-20T22:41:53.293Z,6.09
2022-09-20T22:44:22.675Z,6.00
2022-09-20T22:46:51.889Z,5.94
2022-09-20T22:49:22.363Z,5.86
2022-09-20T22:51:51.510Z,5.79
2022-09-20T22:54:20.729Z,5.73
2022-09-20T22:56:49.845Z,5.67
2022-09-20T22:59:18.964Z,5.60
2022-09-20T23:01:49.233Z,5.56
2022-09-20T23:04:20.384Z,5.52
2022-09-20T23:06:54.770Z,5.47
2022-09-20T23:09:27.548Z,5.46
2022-09-20T23:11:57.238Z,5.40
2022-09-20T23:14:26.668Z,5.36
2022-09-20T23:16:55.973Z,5.32
2022-09-20T23:19:25.613Z,5.29
2022-09-20T23:21:56.353Z,5.28
2022-09-20T23:24:25.735Z,5.25
2022-09-20T23:26:55.096Z,5.22
2022-09-20T23:29:25.621Z,5.15
2022-09-20T23:31:55.124Z,5.12
2022-09-20T23:34:24.524Z,5.08
2022-09-20T23:36:55.276Z,5.02
2022-09-20T23:39:24.700Z,4.96
2022-09-20T23:41:54.068Z,4.90
2022-09-20T23:44:23.454Z,4.85
2022-09-20T23:46:52.856Z,4.80
2022-09-20T23:49:22.226Z,4.73
2022-09-20T23:51:51.641Z,4.68
2022-09-20T23:54:22.373Z,4.65
2022-09-20T23:56:51.894Z,4.59
2022-09-20T23:59:21.261Z,4.54
